BAW891 EGNS-EKCH
Flight info
| Callsign | BAW891 |
|---|---|
| Flight time | 1h 27m |
| Altitude | 35000 |
| Route | IOM DCT LUSOD DCT GOLUM L975 BAVTA L983 TUDLO |
| Aircraft | A321/M-SDE3FGHIRWY/LB1 |
Departure
| Time | 2026-04-26 15:04 |
|---|---|
| Airport | Isle of Man Airport (EGNS) |
Arrival
| Time | 2026-04-26 16:31 |
|---|---|
| Airport | Copenhagen Kastrup Airport (EKCH) |
| Time | Latitude | Longitude | Altitude | Speed | Heading |
|---|---|---|---|---|---|
| 2026-04-26 14:25 | 54.08522 | -4.63318 | 70 ft | 0 kts | 214° |
| 2026-04-26 14:55 | 54.08526 | -4.63313 | 70 ft | 2 kts | 214° |
| 2026-04-26 14:55 | 54.08540 | -4.63297 | 70 ft | 3 kts | 214° |
| 2026-04-26 14:56 | 54.08556 | -4.63279 | 70 ft | 0 kts | 214° |
| 2026-04-26 15:00 | 54.08555 | -4.63279 | 70 ft | 0 kts | 214° |
| 2026-04-26 15:00 | 54.08546 | -4.63290 | 70 ft | 6 kts | 208° |
| 2026-04-26 15:01 | 54.08471 | -4.63264 | 70 ft | 16 kts | 196° |
| 2026-04-26 15:01 | 54.08352 | -4.63262 | 70 ft | 14 kts | 172° |
| 2026-04-26 15:01 | 54.08295 | -4.63425 | 70 ft | 20 kts | 260° |
| 2026-04-26 15:01 | 54.08191 | -4.63488 | 70 ft | 17 kts | 129° |
| 2026-04-26 15:02 | 54.08192 | -4.63378 | 70 ft | 0 kts | 74° |
| 2026-04-26 15:03 | 54.08192 | -4.63377 | 70 ft | 0 kts | 74° |
| 2026-04-26 15:03 | 54.08220 | -4.63206 | 70 ft | 49 kts | 75° |
| 2026-04-26 15:03 | 54.08346 | -4.62209 | 70 ft | 122 kts | 77° |
| 2026-04-26 15:03 | 54.08571 | -4.60495 | 206 ft | 157 kts | 77° |
| 2026-04-26 15:04 | 54.08833 | -4.58689 | 840 ft | 158 kts | 74° |
| 2026-04-26 15:04 | 54.09154 | -4.56888 | 1578 ft | 160 kts | 73° |
| 2026-04-26 15:04 | 54.09551 | -4.55140 | 2133 ft | 161 kts | 56° |
| 2026-04-26 15:04 | 54.10391 | -4.53777 | 2256 ft | 181 kts | 37° |
| 2026-04-26 15:05 | 54.11599 | -4.52713 | 2474 ft | 209 kts | 20° |
| 2026-04-26 15:05 | 54.12579 | -4.52362 | 2795 ft | 225 kts | 7° |
| 2026-04-26 15:05 | 54.14639 | -4.52965 | 3523 ft | 248 kts | 335° |
| 2026-04-26 15:05 | 54.16010 | -4.54791 | 4411 ft | 255 kts | 310° |
| 2026-04-26 15:06 | 54.16787 | -4.57512 | 5451 ft | 258 kts | 284° |
| 2026-04-26 15:06 | 54.16776 | -4.60562 | 6566 ft | 258 kts | 258° |
| 2026-04-26 15:06 | 54.15970 | -4.63283 | 7675 ft | 260 kts | 232° |
| 2026-04-26 15:06 | 54.14641 | -4.65394 | 8700 ft | 264 kts | 224° |
| 2026-04-26 15:07 | 54.11763 | -4.69414 | 10341 ft | 280 kts | 222° |
| 2026-04-26 15:07 | 54.10077 | -4.71433 | 10644 ft | 306 kts | 209° |
| 2026-04-26 15:07 | 54.07902 | -4.72231 | 10916 ft | 336 kts | 183° |
| 2026-04-26 15:08 | 54.05602 | -4.71316 | 11400 ft | 357 kts | 159° |
| 2026-04-26 15:08 | 54.03556 | -4.68716 | 11999 ft | 373 kts | 134° |
| 2026-04-26 15:08 | 54.02182 | -4.64851 | 12636 ft | 384 kts | 115° |
| 2026-04-26 15:08 | 54.01194 | -4.60537 | 13236 ft | 394 kts | 112° |
| 2026-04-26 15:09 | 54.00187 | -4.56168 | 13879 ft | 400 kts | 113° |
| 2026-04-26 15:09 | 53.99116 | -4.51813 | 14551 ft | 405 kts | 114° |
| 2026-04-26 15:09 | 53.98000 | -4.47506 | 15211 ft | 410 kts | 115° |
| 2026-04-26 15:09 | 53.96851 | -4.43222 | 15856 ft | 414 kts | 116° |
| 2026-04-26 15:10 | 53.95997 | -4.40120 | 16323 ft | 414 kts | 117° |
| 2026-04-26 15:10 | 53.95224 | -4.37062 | 16731 ft | 418 kts | 110° |
| 2026-04-26 15:10 | 53.94676 | -4.30315 | 17542 ft | 425 kts | 87° |
| 2026-04-26 15:10 | 53.95216 | -4.25497 | 18062 ft | 429 kts | 72° |
| 2026-04-26 15:11 | 53.96236 | -4.20595 | 18642 ft | 432 kts | 69° |
| 2026-04-26 15:11 | 53.97221 | -4.16023 | 19162 ft | 435 kts | 69° |
| 2026-04-26 15:11 | 53.98292 | -4.10913 | 19721 ft | 439 kts | 69° |
| 2026-04-26 15:11 | 53.99307 | -4.05969 | 20240 ft | 443 kts | 70° |
| 2026-04-26 15:12 | 54.00306 | -4.01069 | 20733 ft | 446 kts | 70° |
| 2026-04-26 15:12 | 54.01326 | -3.96047 | 21216 ft | 449 kts | 70° |
| 2026-04-26 15:12 | 54.02350 | -3.90987 | 21683 ft | 452 kts | 70° |
| 2026-04-26 15:12 | 54.03377 | -3.85894 | 22133 ft | 455 kts | 70° |
| 2026-04-26 15:13 | 54.04402 | -3.80784 | 22565 ft | 458 kts | 70° |
| 2026-04-26 15:13 | 54.05432 | -3.75626 | 22983 ft | 461 kts | 70° |
| 2026-04-26 15:13 | 54.06386 | -3.70832 | 23359 ft | 463 kts | 70° |
| 2026-04-26 15:13 | 54.07419 | -3.65618 | 23749 ft | 466 kts | 70° |
| 2026-04-26 15:14 | 54.08457 | -3.60367 | 24126 ft | 468 kts | 70° |
| 2026-04-26 15:14 | 54.09497 | -3.55085 | 24491 ft | 471 kts | 70° |
| 2026-04-26 15:14 | 54.10538 | -3.49783 | 24843 ft | 473 kts | 70° |
| 2026-04-26 15:14 | 54.11584 | -3.44441 | 25183 ft | 475 kts | 70° |
| 2026-04-26 15:15 | 54.12631 | -3.39081 | 25509 ft | 478 kts | 70° |
| 2026-04-26 15:15 | 54.13677 | -3.33709 | 25824 ft | 480 kts | 71° |
| 2026-04-26 15:15 | 54.14714 | -3.28365 | 26125 ft | 482 kts | 71° |
| 2026-04-26 15:15 | 54.15765 | -3.22939 | 26418 ft | 484 kts | 71° |
| 2026-04-26 15:16 | 54.16821 | -3.17466 | 26703 ft | 486 kts | 71° |
| 2026-04-26 15:16 | 54.17880 | -3.11963 | 26977 ft | 488 kts | 71° |
| 2026-04-26 15:16 | 54.18938 | -3.06450 | 27241 ft | 490 kts | 71° |
| 2026-04-26 15:16 | 54.19997 | -3.00913 | 27497 ft | 491 kts | 71° |
| 2026-04-26 15:17 | 54.21060 | -2.95338 | 27769 ft | 493 kts | 71° |
| 2026-04-26 15:17 | 54.21759 | -2.91662 | 27958 ft | 493 kts | 71° |
| 2026-04-26 15:17 | 54.23174 | -2.84206 | 28356 ft | 493 kts | 71° |
| 2026-04-26 15:17 | 54.24227 | -2.78633 | 28659 ft | 493 kts | 71° |
| 2026-04-26 15:18 | 54.25283 | -2.73030 | 28966 ft | 493 kts | 71° |
| 2026-04-26 15:18 | 54.26334 | -2.67437 | 29273 ft | 492 kts | 71° |
| 2026-04-26 15:18 | 54.27373 | -2.61891 | 29575 ft | 492 kts | 71° |
| 2026-04-26 15:18 | 54.28415 | -2.56310 | 29877 ft | 491 kts | 71° |
| 2026-04-26 15:19 | 54.29453 | -2.50737 | 30174 ft | 491 kts | 71° |
| 2026-04-26 15:19 | 54.30471 | -2.45249 | 30464 ft | 490 kts | 71° |
| 2026-04-26 15:19 | 54.31502 | -2.39678 | 30755 ft | 490 kts | 71° |
| 2026-04-26 15:19 | 54.32525 | -2.34137 | 31041 ft | 489 kts | 71° |
| 2026-04-26 15:20 | 54.33548 | -2.28578 | 31324 ft | 488 kts | 71° |
| 2026-04-26 15:20 | 54.34571 | -2.22996 | 31605 ft | 488 kts | 71° |
| 2026-04-26 15:20 | 54.35585 | -2.17456 | 31880 ft | 487 kts | 71° |
| 2026-04-26 15:20 | 54.36592 | -2.11929 | 32151 ft | 487 kts | 72° |
| 2026-04-26 15:21 | 54.37601 | -2.06378 | 32419 ft | 486 kts | 72° |
| 2026-04-26 15:21 | 54.38606 | -2.00834 | 32683 ft | 485 kts | 72° |
| 2026-04-26 15:21 | 54.39607 | -1.95295 | 32944 ft | 485 kts | 72° |
| 2026-04-26 15:21 | 54.40601 | -1.89770 | 33200 ft | 484 kts | 72° |
| 2026-04-26 15:22 | 54.41589 | -1.84269 | 33452 ft | 484 kts | 72° |
| 2026-04-26 15:22 | 54.42570 | -1.78789 | 33698 ft | 483 kts | 72° |
| 2026-04-26 15:22 | 54.43557 | -1.73262 | 33943 ft | 483 kts | 72° |
| 2026-04-26 15:22 | 54.44536 | -1.67758 | 34184 ft | 482 kts | 72° |
| 2026-04-26 15:23 | 54.45512 | -1.62254 | 34421 ft | 482 kts | 72° |
| 2026-04-26 15:23 | 54.46489 | -1.56730 | 34669 ft | 481 kts | 72° |
| 2026-04-26 15:23 | 54.47457 | -1.51240 | 34909 ft | 480 kts | 72° |
| 2026-04-26 15:23 | 54.48424 | -1.45741 | 34973 ft | 480 kts | 72° |
| 2026-04-26 15:24 | 54.50358 | -1.34685 | 34994 ft | 477 kts | 72° |
| 2026-04-26 15:24 | 54.52257 | -1.23764 | 34996 ft | 477 kts | 72° |
| 2026-04-26 15:25 | 54.53911 | -1.14195 | 34996 ft | 477 kts | 72° |
| 2026-04-26 15:25 | 54.56111 | -1.01390 | 34996 ft | 477 kts | 72° |
| 2026-04-26 15:26 | 54.57648 | -0.92387 | 34996 ft | 477 kts | 72° |
| 2026-04-26 15:26 | 54.59706 | -0.81521 | 34969 ft | 475 kts | 75° |
| 2026-04-26 15:27 | 54.61376 | -0.70150 | 34994 ft | 477 kts | 73° |
| 2026-04-26 15:27 | 54.63259 | -0.59140 | 34995 ft | 477 kts | 73° |
| 2026-04-26 15:28 | 54.65168 | -0.47656 | 34996 ft | 477 kts | 73° |
| 2026-04-26 15:28 | 54.66999 | -0.36612 | 34996 ft | 477 kts | 73° |
| 2026-04-26 15:29 | 54.68377 | -0.28210 | 34996 ft | 477 kts | 73° |
| 2026-04-26 15:30 | 54.71589 | -0.09181 | 35003 ft | 477 kts | 76° |
| 2026-04-26 15:30 | 54.73200 | 0.01595 | 34996 ft | 477 kts | 73° |
| 2026-04-26 15:31 | 54.75952 | 0.18574 | 34996 ft | 476 kts | 73° |
| 2026-04-26 15:32 | 54.78290 | 0.33299 | 34996 ft | 476 kts | 74° |
| 2026-04-26 15:32 | 54.80334 | 0.46263 | 34996 ft | 476 kts | 74° |
| 2026-04-26 15:33 | 54.82069 | 0.57357 | 34996 ft | 476 kts | 74° |
| 2026-04-26 15:33 | 54.83782 | 0.68377 | 34996 ft | 476 kts | 74° |
| 2026-04-26 15:34 | 54.85464 | 0.79273 | 34996 ft | 476 kts | 74° |
| 2026-04-26 15:34 | 54.87205 | 0.90622 | 34996 ft | 476 kts | 74° |
| 2026-04-26 15:35 | 54.88902 | 1.01766 | 34996 ft | 476 kts | 74° |
| 2026-04-26 15:35 | 54.90587 | 1.12905 | 34996 ft | 476 kts | 75° |
| 2026-04-26 15:36 | 54.92256 | 1.24017 | 34996 ft | 476 kts | 75° |
| 2026-04-26 15:36 | 54.93925 | 1.35202 | 34996 ft | 476 kts | 75° |
| 2026-04-26 15:37 | 54.95580 | 1.46376 | 34996 ft | 476 kts | 75° |
| 2026-04-26 15:37 | 54.97225 | 1.57559 | 34996 ft | 476 kts | 75° |
| 2026-04-26 15:38 | 54.98849 | 1.68681 | 34996 ft | 476 kts | 75° |
| 2026-04-26 15:38 | 55.00473 | 1.79878 | 34996 ft | 476 kts | 75° |
| 2026-04-26 15:39 | 55.02089 | 1.91104 | 34996 ft | 476 kts | 75° |
| 2026-04-26 15:39 | 55.03421 | 2.00413 | 34996 ft | 476 kts | 75° |
| 2026-04-26 15:40 | 55.05274 | 2.13465 | 34996 ft | 476 kts | 75° |
| 2026-04-26 15:40 | 55.06857 | 2.24698 | 34996 ft | 476 kts | 75° |
| 2026-04-26 15:41 | 55.08427 | 2.35925 | 34996 ft | 476 kts | 76° |
| 2026-04-26 15:41 | 55.09990 | 2.47187 | 34996 ft | 477 kts | 76° |
| 2026-04-26 15:42 | 55.11542 | 2.58450 | 34996 ft | 476 kts | 76° |
| 2026-04-26 15:42 | 55.13081 | 2.69707 | 34996 ft | 476 kts | 76° |
| 2026-04-26 15:43 | 55.14614 | 2.80991 | 34996 ft | 476 kts | 76° |
| 2026-04-26 15:44 | 55.16934 | 2.98225 | 34996 ft | 476 kts | 76° |
| 2026-04-26 15:44 | 55.19189 | 3.15177 | 34996 ft | 476 kts | 76° |
| 2026-04-26 15:45 | 55.21433 | 3.32235 | 34996 ft | 476 kts | 76° |
| 2026-04-26 15:46 | 55.23643 | 3.49241 | 34996 ft | 477 kts | 76° |
| 2026-04-26 15:46 | 55.24623 | 3.56843 | 34996 ft | 477 kts | 76° |
| 2026-04-26 15:47 | 55.27264 | 3.77547 | 34996 ft | 477 kts | 77° |
| 2026-04-26 15:48 | 55.28443 | 3.86886 | 34996 ft | 477 kts | 77° |
| 2026-04-26 15:48 | 55.29876 | 3.98247 | 34994 ft | 477 kts | 77° |
| 2026-04-26 15:49 | 55.31280 | 4.09643 | 34995 ft | 477 kts | 77° |
| 2026-04-26 15:49 | 55.32687 | 4.21027 | 34996 ft | 477 kts | 77° |
| 2026-04-26 15:50 | 55.34098 | 4.32567 | 34996 ft | 477 kts | 77° |
| 2026-04-26 15:50 | 55.35481 | 4.43974 | 34996 ft | 477 kts | 77° |
| 2026-04-26 15:51 | 55.36851 | 4.55375 | 34996 ft | 477 kts | 77° |
| 2026-04-26 15:51 | 55.38212 | 4.66787 | 34996 ft | 477 kts | 77° |
| 2026-04-26 15:52 | 55.39589 | 4.78440 | 34996 ft | 477 kts | 77° |
| 2026-04-26 15:52 | 55.40973 | 4.90259 | 34996 ft | 477 kts | 78° |
| 2026-04-26 15:53 | 55.42305 | 5.01726 | 34996 ft | 477 kts | 78° |
| 2026-04-26 15:53 | 55.43623 | 5.13177 | 34996 ft | 477 kts | 78° |
| 2026-04-26 15:54 | 55.44937 | 5.24694 | 34996 ft | 477 kts | 78° |
| 2026-04-26 15:54 | 55.45902 | 5.36164 | 34996 ft | 477 kts | 84° |
| 2026-04-26 15:55 | 55.46548 | 5.47837 | 34996 ft | 477 kts | 84° |
| 2026-04-26 15:55 | 55.47117 | 5.58007 | 34996 ft | 477 kts | 84° |
| 2026-04-26 15:56 | 55.47782 | 5.69662 | 34996 ft | 477 kts | 84° |
| 2026-04-26 15:56 | 55.48455 | 5.81314 | 34996 ft | 477 kts | 84° |
| 2026-04-26 15:57 | 55.49132 | 5.92955 | 34996 ft | 477 kts | 84° |
| 2026-04-26 15:57 | 55.50266 | 6.12504 | 34996 ft | 477 kts | 84° |
| 2026-04-26 15:58 | 55.51590 | 6.35628 | 34996 ft | 477 kts | 84° |
| 2026-04-26 15:58 | 55.52905 | 6.59104 | 34996 ft | 477 kts | 84° |
| 2026-04-26 15:59 | 55.54167 | 6.82297 | 34996 ft | 477 kts | 84° |
| 2026-04-26 15:59 | 55.55405 | 7.05800 | 34996 ft | 477 kts | 84° |
| 2026-04-26 16:00 | 55.56585 | 7.28999 | 34996 ft | 477 kts | 84° |
| 2026-04-26 16:00 | 55.57746 | 7.52695 | 34996 ft | 477 kts | 85° |
| 2026-04-26 16:01 | 55.58846 | 7.76060 | 34996 ft | 477 kts | 85° |
| 2026-04-26 16:01 | 55.59906 | 7.99522 | 34996 ft | 477 kts | 85° |
| 2026-04-26 16:02 | 55.60716 | 8.22798 | 34995 ft | 477 kts | 90° |
| 2026-04-26 16:02 | 55.59607 | 8.39258 | 34996 ft | 476 kts | 104° |
| 2026-04-26 16:03 | 55.57985 | 8.50902 | 34996 ft | 476 kts | 104° |
| 2026-04-26 16:03 | 55.56406 | 8.62299 | 34996 ft | 476 kts | 104° |
| 2026-04-26 16:04 | 55.54851 | 8.73663 | 34996 ft | 476 kts | 104° |
| 2026-04-26 16:04 | 55.53508 | 8.84973 | 34992 ft | 476 kts | 99° |
| 2026-04-26 16:05 | 55.52109 | 8.96114 | 34995 ft | 477 kts | 104° |
| 2026-04-26 16:05 | 55.50408 | 9.08153 | 34996 ft | 476 kts | 104° |
| 2026-04-26 16:06 | 55.48817 | 9.19494 | 34996 ft | 476 kts | 104° |
| 2026-04-26 16:06 | 55.47225 | 9.30851 | 34996 ft | 476 kts | 105° |
| 2026-04-26 16:07 | 55.45582 | 9.42158 | 34996 ft | 476 kts | 105° |
| 2026-04-26 16:07 | 55.43951 | 9.53443 | 34996 ft | 476 kts | 105° |
| 2026-04-26 16:08 | 55.42326 | 9.64772 | 34864 ft | 475 kts | 105° |
| 2026-04-26 16:08 | 55.41816 | 9.68338 | 34291 ft | 475 kts | 105° |
| 2026-04-26 16:08 | 55.40685 | 9.76254 | 32860 ft | 481 kts | 105° |
| 2026-04-26 16:08 | 55.39867 | 9.81992 | 31824 ft | 484 kts | 105° |
| 2026-04-26 16:09 | 55.39047 | 9.87734 | 30891 ft | 484 kts | 105° |
| 2026-04-26 16:09 | 55.38233 | 9.93438 | 30234 ft | 477 kts | 105° |
| 2026-04-26 16:09 | 55.37431 | 9.99053 | 29589 ft | 469 kts | 105° |
| 2026-04-26 16:09 | 55.36621 | 10.04599 | 28881 ft | 465 kts | 105° |
| 2026-04-26 16:10 | 55.36052 | 10.08439 | 28439 ft | 460 kts | 105° |
| 2026-04-26 16:10 | 55.35250 | 10.13856 | 27832 ft | 454 kts | 105° |
| 2026-04-26 16:10 | 55.34461 | 10.19194 | 27280 ft | 447 kts | 105° |
| 2026-04-26 16:10 | 55.33689 | 10.24416 | 27068 ft | 434 kts | 105° |
| 2026-04-26 16:11 | 55.32930 | 10.29531 | 27012 ft | 433 kts | 105° |
| 2026-04-26 16:11 | 55.32171 | 10.34640 | 26264 ft | 436 kts | 105° |
| 2026-04-26 16:11 | 55.31396 | 10.39867 | 25219 ft | 443 kts | 105° |
| 2026-04-26 16:11 | 55.30623 | 10.45098 | 24457 ft | 442 kts | 105° |
| 2026-04-26 16:12 | 55.29840 | 10.50403 | 23750 ft | 438 kts | 105° |
| 2026-04-26 16:12 | 55.29073 | 10.55583 | 23080 ft | 434 kts | 105° |
| 2026-04-26 16:12 | 55.28337 | 10.66009 | 21904 ft | 422 kts | 87° |
| 2026-04-26 16:13 | 55.28757 | 10.71069 | 21341 ft | 416 kts | 76° |
| 2026-04-26 16:13 | 55.29524 | 10.75943 | 20787 ft | 411 kts | 73° |
| 2026-04-26 16:13 | 55.30331 | 10.80729 | 20226 ft | 408 kts | 72° |
| 2026-04-26 16:13 | 55.31145 | 10.85498 | 19680 ft | 404 kts | 72° |
| 2026-04-26 16:14 | 55.31950 | 10.90201 | 19127 ft | 401 kts | 72° |
| 2026-04-26 16:14 | 55.32766 | 10.94976 | 18579 ft | 397 kts | 72° |
| 2026-04-26 16:14 | 55.34299 | 11.04148 | 18036 ft | 380 kts | 72° |
| 2026-04-26 16:15 | 55.35035 | 11.08579 | 18006 ft | 381 kts | 72° |
| 2026-04-26 16:15 | 55.35790 | 11.13128 | 17647 ft | 379 kts | 72° |
| 2026-04-26 16:15 | 55.36541 | 11.17647 | 16681 ft | 390 kts | 72° |
| 2026-04-26 16:16 | 55.38060 | 11.26818 | 15480 ft | 388 kts | 73° |
| 2026-04-26 16:16 | 55.38839 | 11.31534 | 14912 ft | 385 kts | 73° |
| 2026-04-26 16:16 | 55.39581 | 11.36042 | 14371 ft | 381 kts | 73° |
| 2026-04-26 16:16 | 55.40317 | 11.40523 | 13832 ft | 378 kts | 73° |
| 2026-04-26 16:17 | 55.41042 | 11.44951 | 13200 ft | 374 kts | 73° |
| 2026-04-26 16:17 | 55.41757 | 11.49333 | 12492 ft | 370 kts | 73° |
| 2026-04-26 16:17 | 55.42458 | 11.53640 | 12121 ft | 357 kts | 73° |
| 2026-04-26 16:17 | 55.43120 | 11.57708 | 12023 ft | 337 kts | 72° |
| 2026-04-26 16:18 | 55.43859 | 11.61518 | 11998 ft | 317 kts | 66° |
| 2026-04-26 16:18 | 55.45948 | 11.68217 | 11997 ft | 312 kts | 54° |
| 2026-04-26 16:19 | 55.48392 | 11.74595 | 11996 ft | 312 kts | 53° |
| 2026-04-26 16:19 | 55.49597 | 11.77712 | 11996 ft | 312 kts | 53° |
| 2026-04-26 16:19 | 55.51801 | 11.83413 | 11656 ft | 315 kts | 53° |
| 2026-04-26 16:20 | 55.53043 | 11.86633 | 11231 ft | 315 kts | 53° |
| 2026-04-26 16:20 | 55.55469 | 11.92986 | 10481 ft | 312 kts | 53° |
| 2026-04-26 16:20 | 55.56695 | 11.96201 | 10106 ft | 311 kts | 53° |
| 2026-04-26 16:21 | 55.57923 | 11.99424 | 9730 ft | 309 kts | 53° |
| 2026-04-26 16:21 | 55.59189 | 12.02747 | 9342 ft | 307 kts | 53° |
| 2026-04-26 16:21 | 55.60387 | 12.05891 | 8973 ft | 305 kts | 53° |
| 2026-04-26 16:21 | 55.61641 | 12.08928 | 8588 ft | 303 kts | 49° |
| 2026-04-26 16:22 | 55.63169 | 12.11862 | 8179 ft | 300 kts | 41° |
| 2026-04-26 16:22 | 55.64702 | 12.14298 | 7829 ft | 297 kts | 38° |
| 2026-04-26 16:22 | 55.66265 | 12.16690 | 7476 ft | 295 kts | 38° |
| 2026-04-26 16:22 | 55.67639 | 12.19383 | 7146 ft | 296 kts | 55° |
| 2026-04-26 16:23 | 55.68337 | 12.22794 | 6813 ft | 295 kts | 80° |
| 2026-04-26 16:23 | 55.68187 | 12.26393 | 6334 ft | 296 kts | 108° |
| 2026-04-26 16:23 | 55.67121 | 12.29458 | 5934 ft | 292 kts | 134° |
| 2026-04-26 16:23 | 55.65623 | 12.31872 | 5607 ft | 289 kts | 140° |
| 2026-04-26 16:24 | 55.64096 | 12.34160 | 5279 ft | 286 kts | 141° |
| 2026-04-26 16:24 | 55.62517 | 12.36490 | 4940 ft | 283 kts | 142° |
| 2026-04-26 16:24 | 55.60807 | 12.38145 | 4593 ft | 280 kts | 162° |
| 2026-04-26 16:24 | 55.58892 | 12.38476 | 4242 ft | 276 kts | 187° |
| 2026-04-26 16:25 | 55.57704 | 12.37896 | 4033 ft | 273 kts | 201° |
| 2026-04-26 16:25 | 55.55955 | 12.36488 | 3785 ft | 267 kts | 206° |
| 2026-04-26 16:25 | 55.54311 | 12.35057 | 3713 ft | 262 kts | 207° |
| 2026-04-26 16:25 | 55.52667 | 12.33605 | 3693 ft | 262 kts | 207° |
| 2026-04-26 16:26 | 55.51028 | 12.32148 | 3522 ft | 259 kts | 207° |
| 2026-04-26 16:26 | 55.49458 | 12.30750 | 3447 ft | 256 kts | 207° |
| 2026-04-26 16:26 | 55.47800 | 12.29400 | 3348 ft | 259 kts | 197° |
| 2026-04-26 16:26 | 55.46024 | 12.29250 | 3272 ft | 259 kts | 169° |
| 2026-04-26 16:27 | 55.44449 | 12.30611 | 3181 ft | 248 kts | 138° |
| 2026-04-26 16:27 | 55.43598 | 12.33101 | 3088 ft | 232 kts | 103° |
| 2026-04-26 16:27 | 55.43716 | 12.35910 | 3014 ft | 232 kts | 68° |
| 2026-04-26 16:27 | 55.44754 | 12.38239 | 2959 ft | 230 kts | 43° |
| 2026-04-26 16:28 | 55.45966 | 12.40079 | 2893 ft | 219 kts | 40° |
| 2026-04-26 16:28 | 55.47080 | 12.41749 | 2812 ft | 213 kts | 40° |
| 2026-04-26 16:28 | 55.48207 | 12.43447 | 2732 ft | 212 kts | 40° |
| 2026-04-26 16:28 | 55.49332 | 12.45150 | 2594 ft | 215 kts | 40° |
| 2026-04-26 16:29 | 55.50465 | 12.46875 | 2303 ft | 214 kts | 41° |
| 2026-04-26 16:29 | 55.51591 | 12.48599 | 2012 ft | 213 kts | 41° |
| 2026-04-26 16:29 | 55.52696 | 12.50297 | 1749 ft | 208 kts | 41° |
| 2026-04-26 16:29 | 55.53764 | 12.51941 | 1458 ft | 197 kts | 41° |
| 2026-04-26 16:30 | 55.54765 | 12.53481 | 1198 ft | 186 kts | 41° |
| 2026-04-26 16:30 | 55.55725 | 12.54960 | 946 ft | 174 kts | 41° |
| 2026-04-26 16:30 | 55.56612 | 12.56329 | 694 ft | 160 kts | 41° |
| 2026-04-26 16:30 | 55.57494 | 12.57690 | 516 ft | 160 kts | 41° |
| 2026-04-26 16:31 | 55.58323 | 12.58969 | 281 ft | 154 kts | 41° |
| 2026-04-26 16:31 | 55.59140 | 12.60230 | 150 ft | 158 kts | 41° |
| 2026-04-26 16:31 | 55.59940 | 12.61467 | 32 ft | 127 kts | 41° |
| 2026-04-26 16:31 | 55.60387 | 12.62159 | 32 ft | 36 kts | 41° |
| 2026-04-26 16:32 | 55.60559 | 12.62430 | 32 ft | 33 kts | 41° |
| 2026-04-26 16:32 | 55.60671 | 12.62607 | 32 ft | 33 kts | 42° |
| 2026-04-26 16:32 | 55.60903 | 12.62951 | 32 ft | 33 kts | 41° |
| 2026-04-26 16:32 | 55.60972 | 12.63139 | 32 ft | 17 kts | 111° |
| 2026-04-26 16:33 | 55.60897 | 12.63309 | 32 ft | 17 kts | 129° |
| 2026-04-26 16:33 | 55.60824 | 12.63469 | 32 ft | 0 kts | 129° |
| 2026-04-26 16:34 | 55.60823 | 12.63470 | 32 ft | 0 kts | 129° |
| 2026-04-26 16:34 | 55.60811 | 12.63498 | 32 ft | 7 kts | 125° |
| 2026-04-26 16:34 | 55.60823 | 12.63617 | 32 ft | 16 kts | 33° |
| 2026-04-26 16:34 | 55.60943 | 12.63755 | 32 ft | 25 kts | 33° |
| 2026-04-26 16:35 | 55.61113 | 12.63953 | 32 ft | 33 kts | 33° |
| 2026-04-26 16:35 | 55.61305 | 12.64174 | 32 ft | 33 kts | 33° |
| 2026-04-26 16:35 | 55.61495 | 12.64395 | 32 ft | 21 kts | 33° |
| 2026-04-26 16:35 | 55.61617 | 12.64446 | 32 ft | 21 kts | 355° |
| 2026-04-26 16:36 | 55.61793 | 12.64440 | 32 ft | 26 kts | 359° |